createdAt,value
2023-04-10T00:00:56.950Z,98720.00
2023-04-10T00:03:25.080Z,98719.00
2023-04-10T00:05:54.955Z,98715.00
2023-04-10T00:08:23.522Z,98711.00
2023-04-10T00:10:51.275Z,98712.00
2023-04-10T00:13:19.038Z,98713.00
2023-04-10T00:15:46.739Z,98722.00
2023-04-10T00:18:14.329Z,98718.00
2023-04-10T00:20:42.561Z,98710.00
2023-04-10T00:23:11.547Z,98709.00
2023-04-10T00:25:39.225Z,98704.00
2023-04-10T00:28:06.902Z,98698.00
2023-04-10T00:30:34.550Z,98701.00
2023-04-10T00:33:02.409Z,98705.00
2023-04-10T00:35:30.076Z,98699.00
2023-04-10T00:37:57.806Z,98701.00
2023-04-10T00:40:27.296Z,98696.00
2023-04-10T00:42:54.925Z,98681.00
2023-04-10T00:45:22.722Z,98683.00
2023-04-10T00:47:50.486Z,98679.00
2023-04-10T00:50:18.537Z,98682.00
2023-04-10T00:52:46.323Z,98681.00
2023-04-10T00:55:14.186Z,98686.00
2023-04-10T00:57:46.292Z,98689.00
2023-04-10T01:00:15.376Z,98689.00
2023-04-10T01:02:43.404Z,98693.00
2023-04-10T01:05:13.378Z,98691.00
2023-04-10T01:07:55.508Z,98689.00
2023-04-10T01:10:30.572Z,98699.00
2023-04-10T01:13:09.140Z,98686.00
2023-04-10T01:15:45.354Z,98688.00
2023-04-10T01:18:20.493Z,98698.00
2023-04-10T01:20:48.209Z,98696.00
2023-04-10T01:23:43.120Z,98688.00
2023-04-10T01:26:12.268Z,98690.00
2023-04-10T01:29:00.140Z,98685.00
2023-04-10T01:31:33.735Z,98682.00
2023-04-10T01:34:06.207Z,98686.00
2023-04-10T01:36:38.901Z,98677.00
2023-04-10T01:39:06.857Z,98677.00
2023-04-10T01:41:35.037Z,98684.00
2023-04-10T01:44:05.432Z,98686.00
2023-04-10T01:46:34.486Z,98685.00
2023-04-10T01:49:03.565Z,98684.00
2023-04-10T01:51:32.744Z,98693.00
2023-04-10T01:54:02.236Z,98685.00
2023-04-10T01:56:30.133Z,98691.00
2023-04-10T01:58:58.002Z,98695.00
2023-04-10T02:01:30.234Z,98689.00
2023-04-10T02:03:58.993Z,98687.00
2023-04-10T02:06:41.964Z,98692.00
2023-04-10T02:09:30.150Z,98687.00
2023-04-10T02:12:03.049Z,98689.00
2023-04-10T02:14:33.068Z,98693.00
2023-04-10T02:17:03.713Z,98680.00
2023-04-10T02:19:33.038Z,98682.00
2023-04-10T02:22:00.940Z,98687.00
2023-04-10T02:24:29.148Z,98683.00
2023-04-10T02:26:57.784Z,98683.00
2023-04-10T02:29:25.960Z,98687.00
2023-04-10T02:31:53.861Z,98683.00
2023-04-10T02:34:22.810Z,98687.00
2023-04-10T02:36:50.460Z,98695.00
2023-04-10T02:39:18.036Z,98695.00
2023-04-10T02:41:46.472Z,98696.00
2023-04-10T02:44:14.221Z,98701.00
2023-04-10T02:46:42.522Z,98697.00
2023-04-10T02:49:10.502Z,98696.00
2023-04-10T02:51:39.496Z,98691.00
2023-04-10T02:54:07.133Z,98694.00
2023-04-10T02:56:35.600Z,98690.00
2023-04-10T02:59:03.564Z,98692.00
2023-04-10T03:01:32.034Z,98685.00
2023-04-10T03:03:59.886Z,98681.00
2023-04-10T03:06:28.143Z,98691.00
2023-04-10T03:08:57.141Z,98687.00
2023-04-10T03:11:24.806Z,98682.00
2023-04-10T03:13:52.599Z,98689.00
2023-04-10T03:16:20.683Z,98684.00
2023-04-10T03:18:48.370Z,98681.00
2023-04-10T03:21:15.992Z,98696.00
2023-04-10T03:23:43.650Z,98683.00
2023-04-10T03:26:12.586Z,98687.00
2023-04-10T03:28:41.430Z,98684.00
2023-04-10T03:31:09.754Z,98683.00
2023-04-10T03:33:37.505Z,98684.00
2023-04-10T03:36:05.732Z,98682.00
2023-04-10T03:38:33.422Z,98681.00
2023-04-10T03:41:01.090Z,98682.00
2023-04-10T03:43:30.782Z,98683.00
2023-04-10T03:45:58.400Z,98685.00
2023-04-10T03:48:28.097Z,98674.00
2023-04-10T03:50:56.098Z,98671.00
2023-04-10T03:53:24.082Z,98672.00
2023-04-10T03:55:52.546Z,98673.00
2023-04-10T03:58:20.424Z,98672.00
2023-04-10T04:00:49.377Z,98665.00
2023-04-10T04:03:17.191Z,98671.00
2023-04-10T04:05:44.983Z,98664.00
2023-04-10T04:08:14.006Z,98673.00
2023-04-10T04:10:41.742Z,98671.00
2023-04-10T04:13:09.342Z,98673.00
2023-04-10T04:15:36.984Z,98674.00
2023-04-10T04:18:05.993Z,98674.00
2023-04-10T04:20:33.643Z,98678.00
2023-04-10T04:23:01.304Z,98671.00
2023-04-10T04:25:28.896Z,98670.00
2023-04-10T04:27:56.529Z,98672.00
2023-04-10T04:30:24.173Z,98670.00
2023-04-10T04:32:51.842Z,98667.00
2023-04-10T04:35:21.020Z,98680.00
2023-04-10T04:37:48.765Z,98679.00
2023-04-10T04:40:16.631Z,98687.00
2023-04-10T04:42:44.320Z,98684.00
2023-04-10T04:45:12.543Z,98684.00
2023-04-10T04:47:40.231Z,98688.00
2023-04-10T04:50:09.600Z,98685.00
2023-04-10T04:52:38.542Z,98688.00
2023-04-10T04:55:07.058Z,98692.00
2023-04-10T04:57:34.682Z,98699.00
2023-04-10T05:00:02.351Z,98702.00
2023-04-10T05:02:30.056Z,98701.00
2023-04-10T05:04:57.894Z,98701.00
2023-04-10T05:07:25.789Z,98704.00
2023-04-10T05:09:54.826Z,98709.00
2023-04-10T05:12:22.445Z,98714.00
2023-04-10T05:14:50.073Z,98724.00
2023-04-10T05:17:17.813Z,98719.00
2023-04-10T05:19:45.621Z,98722.00
2023-04-10T05:22:13.224Z,98711.00
2023-04-10T05:24:40.852Z,98706.00
2023-04-10T05:27:09.870Z,98709.00
2023-04-10T05:29:37.501Z,98702.00
2023-04-10T05:32:05.262Z,98699.00
2023-04-10T05:34:32.875Z,98701.00
2023-04-10T05:37:00.477Z,98697.00
2023-04-10T05:39:29.607Z,98698.00
2023-04-10T05:41:58.233Z,98694.00
2023-04-10T05:44:27.205Z,98691.00
2023-04-10T05:46:54.828Z,98689.00
2023-04-10T05:49:22.497Z,98693.00
2023-04-10T05:51:51.959Z,98697.00
2023-04-10T05:54:19.760Z,98700.00
2023-04-10T05:56:47.428Z,98705.00
2023-04-10T05:59:15.278Z,98701.00
2023-04-10T06:01:45.833Z,98701.00
2023-04-10T06:04:13.614Z,98698.00
2023-04-10T06:06:41.930Z,98694.00
2023-04-10T06:09:09.627Z,98697.00
2023-04-10T06:11:37.253Z,98694.00
2023-04-10T06:14:05.034Z,98695.00
2023-04-10T06:16:32.746Z,98688.00
2023-04-10T06:19:01.751Z,98689.00
2023-04-10T06:21:29.360Z,98688.00
2023-04-10T06:23:56.991Z,98690.00
2023-04-10T06:26:25.953Z,98686.00
2023-04-10T06:28:53.849Z,98683.00
2023-04-10T06:31:23.048Z,98690.00
2023-04-10T06:33:50.812Z,98685.00
2023-04-10T06:36:19.759Z,98688.00
2023-04-10T06:38:47.369Z,98688.00
2023-04-10T06:41:15.026Z,98689.00
2023-04-10T06:43:42.612Z,98690.00
2023-04-10T06:46:10.473Z,98688.00
2023-04-10T06:48:38.111Z,98688.00
2023-04-10T06:51:06.035Z,98684.00
2023-04-10T06:53:34.994Z,98684.00
2023-04-10T06:56:03.677Z,98689.00
2023-04-10T06:58:31.604Z,98690.00
2023-04-10T07:03:32.417Z,98698.00
2023-04-10T07:06:01.964Z,98698.00
2023-04-10T07:08:29.690Z,98699.00
2023-04-10T07:10:58.981Z,98703.00
2023-04-10T07:13:26.722Z,98704.00
2023-04-10T07:15:54.399Z,98698.00
2023-04-10T07:18:22.016Z,98702.00
2023-04-10T07:20:50.100Z,98702.00
2023-04-10T07:23:17.733Z,98692.00
2023-04-10T07:25:45.723Z,98688.00
2023-04-10T07:28:14.681Z,98684.00
2023-04-10T07:30:42.330Z,98691.00
2023-04-10T07:33:10.065Z,98687.00
2023-04-10T07:35:37.814Z,98682.00
2023-04-10T07:38:05.433Z,98680.00
2023-04-10T07:40:33.173Z,98683.00
2023-04-10T07:43:00.834Z,98670.00
2023-04-10T07:45:29.833Z,98662.00
2023-04-10T07:47:59.400Z,98669.00
2023-04-10T07:50:27.094Z,98671.00
2023-04-10T07:52:54.752Z,98664.00
2023-04-10T07:55:22.622Z,98662.00
2023-04-10T07:57:52.210Z,98659.00
2023-04-10T08:00:20.244Z,98664.00
2023-04-10T08:02:49.252Z,98663.00
2023-04-10T08:05:17.048Z,98653.00
2023-04-10T08:07:44.800Z,98656.00
2023-04-10T08:10:12.839Z,98660.00
2023-04-10T08:12:40.500Z,98654.00
2023-04-10T08:15:08.716Z,98653.00
2023-04-10T08:17:36.425Z,98652.00
2023-04-10T08:20:06.596Z,98658.00
2023-04-10T08:22:34.241Z,98659.00
2023-04-10T08:25:01.837Z,98658.00
2023-04-10T08:27:30.475Z,98661.00
2023-04-10T08:29:58.290Z,98654.00
2023-04-10T08:32:26.681Z,98651.00
2023-04-10T08:34:54.377Z,98653.00
2023-04-10T08:37:23.475Z,98660.00
2023-04-10T08:39:51.058Z,98653.00
2023-04-10T08:42:18.878Z,98647.00
2023-04-10T08:44:46.796Z,98655.00
2023-04-10T08:47:16.112Z,98651.00
2023-04-10T08:49:50.376Z,98645.00
2023-04-10T08:52:24.073Z,98647.00
2023-04-10T08:54:56.007Z,98641.00
2023-04-10T08:57:24.436Z,98642.00
2023-04-10T08:59:52.631Z,98643.00
2023-04-10T09:02:20.880Z,98643.00
2023-04-10T09:04:50.732Z,98648.00
2023-04-10T09:07:18.719Z,98650.00
2023-04-10T09:09:48.012Z,98651.00
2023-04-10T09:12:16.022Z,98641.00
2023-04-10T09:14:44.470Z,98639.00
2023-04-10T09:17:14.992Z,98639.00
2023-04-10T09:19:43.045Z,98623.00
2023-04-10T09:22:10.876Z,98622.00
2023-04-10T09:24:39.387Z,98628.00
2023-04-10T09:27:09.033Z,98623.00
2023-04-10T09:29:45.016Z,98618.00
2023-04-10T09:32:13.480Z,98617.00
2023-04-10T09:34:54.824Z,98619.00
2023-04-10T09:37:22.798Z,98619.00
2023-04-10T09:39:50.731Z,98604.00
2023-04-10T09:42:31.351Z,98609.00
2023-04-10T09:44:59.555Z,98603.00
2023-04-10T09:47:27.264Z,98602.00
2023-04-10T09:49:56.386Z,98613.00
2023-04-10T09:52:26.414Z,98599.00
2023-04-10T09:54:54.368Z,98590.00
2023-04-10T09:57:25.394Z,98589.00
2023-04-10T09:59:54.089Z,98581.00
2023-04-10T10:02:23.812Z,98581.00
2023-04-10T10:04:52.868Z,98580.00
2023-04-10T10:07:21.935Z,98567.00
2023-04-10T10:09:51.661Z,98571.00
2023-04-10T10:12:25.658Z,98561.00
2023-04-10T10:15:01.898Z,98555.00
2023-04-10T10:17:36.469Z,98548.00
2023-04-10T10:20:08.363Z,98549.00
2023-04-10T10:22:36.501Z,98548.00
2023-04-10T10:25:05.326Z,98545.00
2023-04-10T10:27:38.252Z,98540.00
2023-04-10T10:30:25.372Z,98522.00
2023-04-10T10:32:57.543Z,98525.00
2023-04-10T10:35:27.981Z,98524.00
2023-04-10T10:37:59.276Z,98516.00
2023-04-10T10:40:32.369Z,98516.00
2023-04-10T10:43:09.917Z,98523.00
2023-04-10T10:45:42.153Z,98502.00
2023-04-10T10:48:09.906Z,98512.00
2023-04-10T10:50:56.331Z,98517.00
2023-04-10T10:53:34.934Z,98506.00
2023-04-10T10:56:36.707Z,98506.00
2023-04-10T10:59:05.754Z,98502.00
2023-04-10T11:01:33.601Z,98493.00
2023-04-10T11:04:02.397Z,98477.00
2023-04-10T11:06:51.024Z,98486.00
2023-04-10T11:09:49.411Z,98480.00
2023-04-10T11:12:18.015Z,98484.00
2023-04-10T11:14:58.069Z,98476.00
2023-04-10T11:17:47.885Z,98476.00
2023-04-10T11:20:15.663Z,98475.00
2023-04-10T11:23:11.866Z,98472.00
2023-04-10T11:25:54.115Z,98479.00
2023-04-10T11:28:38.023Z,98463.00
2023-04-10T11:31:18.713Z,98458.00
2023-04-10T11:33:48.626Z,98460.00
2023-04-10T11:36:18.032Z,98460.00
2023-04-10T11:38:56.410Z,98459.00
2023-04-10T11:41:28.514Z,98449.00
2023-04-10T11:43:56.404Z,98433.00
2023-04-10T11:46:25.621Z,98445.00
2023-04-10T11:48:54.526Z,98442.00
2023-04-10T11:51:23.229Z,98442.00
2023-04-10T11:53:51.048Z,98432.00
2023-04-10T11:56:21.076Z,98429.00
2023-04-10T11:58:54.729Z,98421.00
2023-04-10T12:01:23.486Z,98423.00
2023-04-10T12:03:52.696Z,98418.00
2023-04-10T12:06:21.306Z,98421.00
2023-04-10T12:08:51.111Z,98410.00
2023-04-10T12:11:21.209Z,98414.00
2023-04-10T12:13:49.083Z,98419.00
2023-04-10T12:16:16.821Z,98416.00
2023-04-10T12:18:45.488Z,98422.00
2023-04-10T12:21:14.673Z,98411.00
2023-04-10T12:23:43.403Z,98403.00
2023-04-10T12:26:15.656Z,98401.00
2023-04-10T12:28:52.598Z,98402.00
2023-04-10T12:31:28.236Z,98398.00
2023-04-10T12:33:57.731Z,98399.00
2023-04-10T12:36:29.933Z,98404.00
2023-04-10T12:38:58.381Z,98388.00
2023-04-10T12:41:27.648Z,98382.00
2023-04-10T12:44:53.607Z,98382.00
2023-04-10T12:47:21.633Z,98376.00
2023-04-10T12:50:10.096Z,98372.00
2023-04-10T12:52:41.184Z,98367.00
2023-04-10T12:55:14.646Z,98362.00
2023-04-10T12:57:43.185Z,98365.00
2023-04-10T13:00:12.923Z,98365.00
2023-04-10T13:02:41.288Z,98363.00
2023-04-10T13:05:10.408Z,98348.00
2023-04-10T13:07:40.975Z,98354.00
2023-04-10T13:10:10.118Z,98345.00
2023-04-10T13:12:38.811Z,98350.00
2023-04-10T13:15:07.678Z,98338.00
2023-04-10T13:17:35.793Z,98339.00
2023-04-10T13:20:04.627Z,98340.00
2023-04-10T13:22:32.230Z,98335.00
2023-04-10T13:25:01.181Z,98328.00
2023-04-10T13:27:28.756Z,98324.00
2023-04-10T13:29:56.373Z,98316.00
2023-04-10T13:32:24.024Z,98303.00
2023-04-10T13:34:51.629Z,98298.00
2023-04-10T13:37:20.254Z,98298.00
2023-04-10T13:39:47.818Z,98300.00
2023-04-10T13:42:16.770Z,98293.00
2023-04-10T13:44:44.423Z,98294.00
2023-04-10T13:47:12.157Z,98283.00
2023-04-10T13:49:39.798Z,98288.00
2023-04-10T13:52:07.458Z,98287.00
2023-04-10T13:54:35.024Z,98278.00
2023-04-10T13:57:02.765Z,98269.00
2023-04-10T13:59:31.797Z,98262.00
2023-04-10T14:01:59.433Z,98252.00
2023-04-10T14:04:27.043Z,98254.00
2023-04-10T14:07:00.480Z,98249.00
2023-04-10T14:09:28.216Z,98247.00
2023-04-10T14:11:56.030Z,98244.00
2023-04-10T14:14:24.676Z,98240.00
2023-04-10T14:16:53.643Z,98235.00
2023-04-10T14:19:21.288Z,98232.00
2023-04-10T14:21:48.921Z,98225.00
2023-04-10T14:24:16.456Z,98223.00
2023-04-10T14:26:44.009Z,98222.00
2023-04-10T14:29:11.577Z,98223.00
2023-04-10T14:31:50.701Z,98222.00
2023-04-10T14:34:26.096Z,98209.00
2023-04-10T14:36:55.803Z,98209.00
2023-04-10T14:39:25.079Z,98209.00
2023-04-10T14:41:52.964Z,98214.00
2023-04-10T14:44:20.634Z,98203.00
2023-04-10T14:46:48.205Z,98210.00
2023-04-10T14:49:16.068Z,98208.00
2023-04-10T14:51:45.738Z,98197.00
2023-04-10T14:54:13.324Z,98200.00
2023-04-10T14:56:40.977Z,98196.00
2023-04-10T14:59:08.564Z,98196.00
2023-04-10T15:01:36.563Z,98189.00
2023-04-10T15:04:04.453Z,98186.00
2023-04-10T15:06:33.754Z,98183.00
2023-04-10T15:09:04.699Z,98164.00
2023-04-10T15:11:32.331Z,98177.00
2023-04-10T15:14:02.143Z,98169.00
2023-04-10T15:16:30.196Z,98178.00
2023-04-10T15:18:57.842Z,98174.00
2023-04-10T15:21:27.283Z,98175.00
2023-04-10T15:23:54.980Z,98166.00
2023-04-10T15:26:24.062Z,98166.00
2023-04-10T15:28:51.690Z,98161.00
2023-04-10T15:31:22.991Z,98152.00
2023-04-10T15:33:52.803Z,98155.00
2023-04-10T15:36:23.443Z,98152.00
2023-04-10T15:38:51.030Z,98155.00
2023-04-10T15:41:18.616Z,98143.00
2023-04-10T15:43:48.055Z,98144.00
2023-04-10T15:46:17.112Z,98142.00
2023-04-10T15:48:45.922Z,98132.00
2023-04-10T15:51:13.485Z,98128.00
2023-04-10T15:53:41.138Z,98136.00
2023-04-10T15:56:09.347Z,98132.00
2023-04-10T15:58:37.012Z,98128.00
2023-04-10T16:01:06.866Z,98135.00
2023-04-10T16:03:34.773Z,98127.00
2023-04-10T16:06:02.494Z,98131.00
2023-04-10T16:08:30.115Z,98131.00
2023-04-10T16:10:57.823Z,98131.00
2023-04-10T16:13:25.547Z,98130.00
2023-04-10T16:15:53.226Z,98133.00
2023-04-10T16:18:22.150Z,98136.00
2023-04-10T16:20:49.737Z,98129.00
2023-04-10T16:23:17.344Z,98135.00
2023-04-10T16:25:44.924Z,98133.00
2023-04-10T16:28:12.524Z,98126.00
2023-04-10T16:30:40.518Z,98117.00
2023-04-10T16:33:08.166Z,98105.00
2023-04-10T16:35:37.137Z,98108.00
2023-04-10T16:38:05.291Z,98107.00
2023-04-10T16:40:33.193Z,98099.00
2023-04-10T16:43:01.825Z,98096.00
2023-04-10T16:45:29.526Z,98093.00
2023-04-10T16:47:57.280Z,98099.00
2023-04-10T16:50:24.860Z,98078.00
2023-04-10T16:52:53.953Z,98073.00
2023-04-10T16:55:21.504Z,98074.00
2023-04-10T16:57:49.074Z,98084.00
2023-04-10T17:00:17.353Z,98086.00
2023-04-10T17:02:45.074Z,98084.00
2023-04-10T17:05:13.667Z,98076.00
2023-04-10T17:07:43.070Z,98067.00
2023-04-10T17:10:13.523Z,98066.00
2023-04-10T17:12:42.380Z,98060.00
2023-04-10T17:15:10.815Z,98062.00
2023-04-10T17:17:38.481Z,98063.00
2023-04-10T17:20:09.681Z,98056.00
2023-04-10T17:22:38.794Z,98052.00
2023-04-10T17:25:07.166Z,98054.00
2023-04-10T17:27:37.881Z,98042.00
2023-04-10T17:30:12.170Z,98033.00
2023-04-10T17:32:41.703Z,98028.00
2023-04-10T17:35:09.772Z,98034.00
2023-04-10T17:37:37.399Z,98016.00
2023-04-10T17:40:05.574Z,98017.00
2023-04-10T17:42:33.206Z,98017.00
2023-04-10T17:45:02.223Z,98018.00
2023-04-10T17:47:30.131Z,98014.00
2023-04-10T17:49:57.811Z,98006.00
2023-04-10T17:52:25.566Z,98006.00
2023-04-10T17:54:53.352Z,98013.00
2023-04-10T17:57:21.086Z,98023.00
2023-04-10T17:59:49.020Z,98035.00
2023-04-10T18:02:18.199Z,98026.00
2023-04-10T18:04:45.933Z,98024.00
2023-04-10T18:07:13.560Z,98015.00
2023-04-10T18:09:41.212Z,98021.00
2023-04-10T18:12:08.954Z,98023.00
2023-04-10T18:14:37.101Z,98008.00
2023-04-10T18:17:04.840Z,98007.00
2023-04-10T18:19:34.032Z,98002.00
2023-04-10T18:22:01.679Z,98013.00
2023-04-10T18:24:29.513Z,98005.00
2023-04-10T18:26:57.225Z,97991.00
2023-04-10T18:29:26.292Z,97991.00
2023-04-10T18:31:54.087Z,97990.00
2023-04-10T18:34:21.737Z,97986.00
2023-04-10T18:36:50.747Z,97975.00
2023-04-10T18:39:19.009Z,97984.00
2023-04-10T18:41:46.671Z,97987.00
2023-04-10T18:44:14.291Z,97986.00
2023-04-10T18:46:46.369Z,97980.00
2023-04-10T18:49:16.781Z,97974.00
2023-04-10T18:51:44.409Z,97966.00
2023-04-10T18:54:13.597Z,97962.00
2023-04-10T18:56:41.213Z,97960.00
2023-04-10T18:59:08.833Z,97965.00
2023-04-10T19:01:36.526Z,97953.00
2023-04-10T19:04:04.514Z,97957.00
2023-04-10T19:06:32.901Z,97957.00
2023-04-10T19:09:00.587Z,97954.00
2023-04-10T19:11:29.669Z,97952.00
2023-04-10T19:13:57.515Z,97954.00
2023-04-10T19:16:25.422Z,97958.00
2023-04-10T19:18:54.742Z,97957.00
2023-04-10T19:21:22.910Z,97950.00
2023-04-10T19:23:50.609Z,97943.00
2023-04-10T19:26:19.977Z,97939.00
2023-04-10T19:28:48.970Z,97952.00
2023-04-10T19:31:16.794Z,97947.00
2023-04-10T19:33:44.507Z,97946.00
2023-04-10T19:36:12.180Z,97948.00
2023-04-10T19:38:40.940Z,97957.00
2023-04-10T19:41:15.093Z,97956.00
2023-04-10T19:43:42.982Z,97955.00
2023-04-10T19:46:18.579Z,97957.00
2023-04-10T19:48:46.615Z,97958.00
2023-04-10T19:51:14.316Z,97955.00
2023-04-10T19:53:42.808Z,97946.00
2023-04-10T19:56:10.619Z,97944.00
2023-04-10T19:58:40.697Z,97940.00
2023-04-10T20:01:10.240Z,97932.00
2023-04-10T20:03:39.624Z,97936.00
2023-04-10T20:06:08.366Z,97935.00
2023-04-10T20:08:36.660Z,97943.00
2023-04-10T20:11:06.024Z,97940.00
2023-04-10T20:13:34.382Z,97947.00
2023-04-10T20:16:02.146Z,97922.00
2023-04-10T20:18:29.959Z,97902.00
2023-04-10T20:20:58.945Z,97886.00
2023-04-10T20:23:26.608Z,97897.00
2023-04-10T20:25:54.291Z,97907.00
2023-04-10T20:28:21.901Z,97918.00
2023-04-10T20:30:49.539Z,97921.00
2023-04-10T20:33:17.237Z,97916.00
2023-04-10T20:35:44.898Z,97929.00
2023-04-10T20:38:13.938Z,97931.00
2023-04-10T20:40:41.576Z,97910.00
2023-04-10T20:43:12.072Z,97894.00
2023-04-10T20:45:40.376Z,97886.00
2023-04-10T20:48:09.822Z,97893.00
2023-04-10T20:50:37.966Z,97895.00
2023-04-10T20:53:05.688Z,97886.00
2023-04-10T20:55:38.326Z,97883.00
2023-04-10T20:58:06.084Z,97890.00
2023-04-10T21:00:34.502Z,97882.00
2023-04-10T21:03:02.287Z,97883.00
2023-04-10T21:05:29.997Z,97885.00
2023-04-10T21:07:57.674Z,97873.00
2023-04-10T21:10:25.447Z,97858.00
2023-04-10T21:12:54.437Z,97850.00
2023-04-10T21:15:22.408Z,97857.00
2023-04-10T21:17:50.104Z,97853.00
2023-04-10T21:20:17.937Z,97853.00
2023-04-10T21:22:45.612Z,97858.00
2023-04-10T21:25:13.299Z,97851.00
2023-04-10T21:27:41.017Z,97858.00
2023-04-10T21:30:10.903Z,97851.00
2023-04-10T21:32:38.579Z,97846.00
2023-04-10T21:35:07.125Z,97849.00
2023-04-10T21:37:34.803Z,97839.00
2023-04-10T21:40:02.457Z,97837.00
2023-04-10T21:42:30.099Z,97821.00
2023-04-10T21:44:58.749Z,97817.00
2023-04-10T21:47:27.751Z,97811.00
2023-04-10T21:49:55.423Z,97805.00
2023-04-10T21:52:23.108Z,97812.00
2023-04-10T21:54:50.896Z,97816.00
2023-04-10T21:57:18.580Z,97809.00
2023-04-10T21:59:46.204Z,97803.00
2023-04-10T22:02:13.940Z,97797.00
2023-04-10T22:04:53.848Z,97798.00
2023-04-10T22:07:22.641Z,97790.00
2023-04-10T22:09:50.298Z,97792.00
2023-04-10T22:12:17.995Z,97788.00
2023-04-10T22:14:46.107Z,97787.00
2023-04-10T22:17:13.799Z,97788.00
2023-04-10T22:19:42.817Z,97778.00
2023-04-10T22:22:10.537Z,97776.00
2023-04-10T22:24:38.212Z,97771.00
2023-04-10T22:27:05.918Z,97769.00
2023-04-10T22:29:34.818Z,97769.00
2023-04-10T22:32:02.469Z,97762.00
2023-04-10T22:34:30.139Z,97766.00
2023-04-10T22:36:59.155Z,97769.00
2023-04-10T22:39:26.879Z,97758.00
2023-04-10T22:41:54.512Z,97755.00
2023-04-10T22:44:22.169Z,97742.00
2023-04-10T22:46:49.890Z,97737.00
2023-04-10T22:49:17.606Z,97734.00
2023-04-10T22:51:46.573Z,97730.00
2023-04-10T22:54:16.187Z,97723.00
2023-04-10T22:56:44.189Z,97715.00
2023-04-10T22:59:12.054Z,97710.00
2023-04-10T23:01:39.806Z,97704.00
2023-04-10T23:04:07.605Z,97707.00
2023-04-10T23:06:35.259Z,97716.00
2023-04-10T23:09:03.359Z,97712.00
2023-04-10T23:11:33.137Z,97715.00
2023-04-10T23:14:00.816Z,97712.00
2023-04-10T23:16:28.671Z,97711.00
2023-04-10T23:18:56.595Z,97707.00
2023-04-10T23:21:24.469Z,97707.00
2023-04-10T23:23:52.138Z,97698.00
2023-04-10T23:26:19.832Z,97695.00
2023-04-10T23:28:48.879Z,97690.00
2023-04-10T23:31:16.732Z,97690.00
2023-04-10T23:33:44.584Z,97673.00
2023-04-10T23:36:12.298Z,97662.00
2023-04-10T23:38:40.062Z,97650.00
2023-04-10T23:41:08.508Z,97636.00
2023-04-10T23:43:36.163Z,97603.00
2023-04-10T23:46:05.273Z,97607.00
2023-04-10T23:48:32.941Z,97601.00
2023-04-10T23:51:05.146Z,97610.00
2023-04-10T23:53:33.276Z,97604.00
2023-04-10T23:56:01.139Z,97597.00
2023-04-10T23:58:28.870Z,97597.00
